createdAt,value
2023-09-21T00:03:32.840Z,15.91
2023-09-21T00:06:43.059Z,15.89
2023-09-21T00:09:43.453Z,15.91
2023-09-21T00:12:51.325Z,15.91
2023-09-21T00:15:59.727Z,15.89
2023-09-21T00:19:10.238Z,15.69
2023-09-21T00:22:07.164Z,15.63
2023-09-21T00:25:27.280Z,15.60
2023-09-21T00:28:43.533Z,15.60
2023-09-21T00:32:25.626Z,15.63
2023-09-21T00:35:50.802Z,15.68
2023-09-21T00:39:16.249Z,15.78
2023-09-21T00:42:44.643Z,15.93
2023-09-21T00:45:56.403Z,15.86
2023-09-21T00:49:31.987Z,15.85
2023-09-21T00:52:46.628Z,15.69
2023-09-21T00:56:24.749Z,15.66
2023-09-21T00:59:40.485Z,15.76
2023-09-21T01:02:41.373Z,15.69
2023-09-21T01:05:56.691Z,15.66
2023-09-21T01:09:12.063Z,15.72
2023-09-21T01:12:38.664Z,15.64
2023-09-21T01:15:33.444Z,15.60
2023-09-21T01:18:42.411Z,15.62
2023-09-21T01:21:35.824Z,15.65
2023-09-21T01:25:25.300Z,15.75
2023-09-21T01:28:41.947Z,15.66
2023-09-21T01:32:18.790Z,15.70
2023-09-21T01:35:53.413Z,15.61
2023-09-21T01:39:35.586Z,15.53
2023-09-21T01:43:20.190Z,15.42
2023-09-21T01:47:00.548Z,15.45
2023-09-21T01:50:26.732Z,15.38
2023-09-21T01:53:49.831Z,15.31
2023-09-21T01:57:15.871Z,15.34
2023-09-21T02:00:42.351Z,15.35
2023-09-21T02:04:24.848Z,15.44
2023-09-21T02:07:19.170Z,15.38
2023-09-21T02:10:32.451Z,15.36
2023-09-21T02:14:05.575Z,15.33
2023-09-21T02:17:25.470Z,15.27
2023-09-21T02:20:34.750Z,15.22
2023-09-21T02:24:15.701Z,15.26
2023-09-21T02:27:02.331Z,15.31
2023-09-21T02:30:19.436Z,15.36
2023-09-21T02:33:34.336Z,15.37
2023-09-21T02:37:11.121Z,15.50
2023-09-21T02:40:24.146Z,15.49
2023-09-21T02:43:23.224Z,15.47
2023-09-21T02:46:39.077Z,15.39
2023-09-21T02:49:45.632Z,15.35
2023-09-21T02:53:34.373Z,15.39
2023-09-21T02:56:54.811Z,15.34
2023-09-21T03:00:35.052Z,15.45
2023-09-21T03:03:27.050Z,15.48
2023-09-21T03:06:07.133Z,15.41
2023-09-21T03:09:08.720Z,15.37
2023-09-21T03:12:49.525Z,15.35
2023-09-21T03:16:35.210Z,15.33
2023-09-21T03:19:51.322Z,15.29
2023-09-21T03:23:10.737Z,15.28
2023-09-21T03:25:52.766Z,15.32
2023-09-21T03:28:56.984Z,15.31
2023-09-21T03:31:48.866Z,15.35
2023-09-21T03:35:27.563Z,15.51
2023-09-21T03:38:54.734Z,15.39
2023-09-21T03:41:57.474Z,15.38
2023-09-21T03:45:00.749Z,15.42
2023-09-21T03:48:11.829Z,15.43
2023-09-21T03:51:51.289Z,15.44
2023-09-21T03:55:16.306Z,15.45
2023-09-21T03:58:21.485Z,15.48
2023-09-21T04:01:08.982Z,15.49
2023-09-21T04:04:20.749Z,15.54
2023-09-21T04:07:55.840Z,15.53
2023-09-21T04:11:41.600Z,15.50
2023-09-21T04:14:35.485Z,15.52
2023-09-21T04:17:10.131Z,15.53
2023-09-21T04:20:23.861Z,15.61
2023-09-21T04:23:31.228Z,15.62
2023-09-21T04:26:39.931Z,15.68
2023-09-21T04:29:51.875Z,15.60
2023-09-21T04:32:46.419Z,15.62
2023-09-21T04:35:32.315Z,15.58
2023-09-21T04:38:27.600Z,15.58
2023-09-21T04:41:43.452Z,15.53
2023-09-21T04:45:03.045Z,15.51
2023-09-21T04:48:05.082Z,15.50
2023-09-21T04:51:17.538Z,15.51
2023-09-21T04:54:14.678Z,15.54
2023-09-21T04:57:11.016Z,15.60
2023-09-21T05:00:42.160Z,15.65
2023-09-21T05:03:57.855Z,15.68
2023-09-21T05:06:56.359Z,15.79
2023-09-21T05:10:29.194Z,15.89
2023-09-21T05:13:29.066Z,15.97
2023-09-21T05:16:21.698Z,16.07
2023-09-21T05:19:50.268Z,16.16
2023-09-21T05:23:07.269Z,16.38
2023-09-21T05:26:21.130Z,16.59
2023-09-21T05:30:03.221Z,16.72
2023-09-21T05:33:14.104Z,16.80
2023-09-21T05:36:16.675Z,16.82
2023-09-21T05:39:41.887Z,16.80
2023-09-21T05:42:56.682Z,16.87
2023-09-21T05:46:00.917Z,17.04
2023-09-21T05:49:19.133Z,17.15
2023-09-21T05:53:08.798Z,17.33
2023-09-21T05:56:31.812Z,17.38
2023-09-21T05:59:52.789Z,17.52
2023-09-21T06:03:18.015Z,17.74
2023-09-21T06:07:06.133Z,17.94
2023-09-21T06:10:39.029Z,18.11
2023-09-21T06:14:06.266Z,18.23
2023-09-21T06:17:21.660Z,18.52
2023-09-21T06:20:30.486Z,18.69
2023-09-21T06:24:00.436Z,18.89
2023-09-21T06:27:24.760Z,19.19
2023-09-21T06:31:02.713Z,19.35
2023-09-21T06:34:29.583Z,19.49
2023-09-21T06:37:28.281Z,19.58
2023-09-21T06:41:14.888Z,19.58
2023-09-21T06:44:56.683Z,19.82
2023-09-21T06:48:36.361Z,19.92
2023-09-21T06:52:00.993Z,20.24
2023-09-21T06:55:21.008Z,20.25
2023-09-21T06:58:44.306Z,20.33
2023-09-21T07:02:20.127Z,21.51
2023-09-21T07:06:09.589Z,22.80
2023-09-21T07:09:50.754Z,23.52
2023-09-21T07:13:41.434Z,24.00
2023-09-21T07:17:00.741Z,24.57
2023-09-21T07:20:35.306Z,25.08
2023-09-21T07:23:51.520Z,25.49
2023-09-21T07:27:13.977Z,25.91
2023-09-21T07:30:37.451Z,26.10
2023-09-21T07:34:00.871Z,26.39
2023-09-21T07:37:18.617Z,26.31
2023-09-21T07:40:52.155Z,26.94
2023-09-21T07:44:42.335Z,26.81
2023-09-21T07:48:05.481Z,27.13
2023-09-21T07:51:48.868Z,27.29
2023-09-21T07:55:37.604Z,27.45
2023-09-21T07:59:26.865Z,27.88
2023-09-21T08:03:06.743Z,28.45
2023-09-21T08:06:35.503Z,28.38
2023-09-21T08:10:09.424Z,28.34
2023-09-21T08:17:48.149Z,29.03
2023-09-21T08:21:38.595Z,29.17
2023-09-21T08:25:28.098Z,29.47
2023-09-21T08:29:17.401Z,30.01
2023-09-21T08:33:08.713Z,30.02
2023-09-21T08:36:58.358Z,30.30
2023-09-21T08:40:17.827Z,31.13
2023-09-21T08:43:13.190Z,31.13
2023-09-21T08:46:03.135Z,31.28
2023-09-21T08:49:52.520Z,31.18
2023-09-21T08:53:05.022Z,30.99
2023-09-21T08:55:45.047Z,31.38
2023-09-21T08:58:27.998Z,31.18
2023-09-21T09:00:59.566Z,31.03
2023-09-21T09:04:21.362Z,31.38
2023-09-21T09:08:01.012Z,31.69
2023-09-21T09:11:16.912Z,31.86
2023-09-21T09:14:03.134Z,31.86
2023-09-21T09:17:27.379Z,31.98
2023-09-21T09:20:51.898Z,31.42
2023-09-21T09:24:31.227Z,31.87
2023-09-21T09:28:02.560Z,31.71
2023-09-21T09:31:34.130Z,31.59
2023-09-21T09:34:31.813Z,31.05
2023-09-21T09:37:42.993Z,31.25
2023-09-21T09:40:25.540Z,31.46
2023-09-21T09:42:59.557Z,31.80
2023-09-21T09:45:53.121Z,32.06
2023-09-21T09:48:50.011Z,31.98
2023-09-21T09:51:42.613Z,32.04
2023-09-21T09:54:15.100Z,31.98
2023-09-21T09:56:44.540Z,32.05
2023-09-21T09:59:46.875Z,32.15
2023-09-21T10:02:19.005Z,32.28
2023-09-21T10:04:56.925Z,32.25
2023-09-21T10:08:11.113Z,32.45
2023-09-21T10:10:59.013Z,32.75
2023-09-21T10:13:53.229Z,32.79
2023-09-21T10:16:31.521Z,32.99
2023-09-21T10:19:18.674Z,33.16
2023-09-21T10:22:01.491Z,33.39
2023-09-21T10:24:58.728Z,33.16
2023-09-21T10:27:53.555Z,32.88
2023-09-21T10:31:15.850Z,32.80
2023-09-21T10:34:43.686Z,32.89
2023-09-21T10:38:32.146Z,33.24
2023-09-21T10:42:02.091Z,33.02
2023-09-21T10:45:57.603Z,33.22
2023-09-21T10:49:45.213Z,33.06
2023-09-21T10:53:11.307Z,33.59
2023-09-21T10:56:32.010Z,33.41
2023-09-21T11:00:13.790Z,32.94
2023-09-21T11:03:46.592Z,33.62
2023-09-21T11:06:49.285Z,34.07
2023-09-21T11:10:22.406Z,33.84
2023-09-21T11:13:52.004Z,34.07
2023-09-21T11:17:31.930Z,33.87
2023-09-21T11:21:15.258Z,33.64
2023-09-21T11:24:57.927Z,33.75
2023-09-21T11:28:38.632Z,33.39
2023-09-21T11:31:51.679Z,33.79
2023-09-21T11:35:03.869Z,34.11
2023-09-21T11:38:31.541Z,34.10
2023-09-21T11:41:52.837Z,34.13
2023-09-21T11:46:03.694Z,33.58
2023-09-21T11:50:00.001Z,33.88
2023-09-21T11:53:55.174Z,34.93
2023-09-21T11:57:46.034Z,34.66
2023-09-21T12:01:37.091Z,34.63
2023-09-21T12:05:34.171Z,34.87
2023-09-21T12:09:26.498Z,34.35
2023-09-21T12:13:27.005Z,34.96
2023-09-21T12:17:19.483Z,34.49
2023-09-21T12:21:31.364Z,34.60
2023-09-21T12:25:25.928Z,34.72
2023-09-21T12:29:26.729Z,34.46
2023-09-21T12:33:04.652Z,34.37
2023-09-21T12:36:57.966Z,34.74
2023-09-21T12:41:01.301Z,34.49
2023-09-21T12:48:14.839Z,34.53
2023-09-21T12:50:55.564Z,34.23
2023-09-21T12:53:48.465Z,34.60
2023-09-21T12:56:45.168Z,35.17
2023-09-21T12:59:58.137Z,35.15
2023-09-21T13:02:36.293Z,35.13
2023-09-21T13:05:14.094Z,35.36
2023-09-21T13:07:57.366Z,35.44
2023-09-21T13:10:38.233Z,35.61
2023-09-21T13:13:25.427Z,35.50
2023-09-21T13:16:02.660Z,35.78
2023-09-21T13:18:46.586Z,35.51
2023-09-21T13:21:22.039Z,35.17
2023-09-21T13:24:07.512Z,35.37
2023-09-21T13:27:51.170Z,35.60
2023-09-21T13:31:24.270Z,35.58
2023-09-21T13:34:31.365Z,35.69
2023-09-21T13:37:54.433Z,36.10
2023-09-21T13:40:41.338Z,36.08
2023-09-21T13:43:26.633Z,36.00
2023-09-21T13:46:28.030Z,35.56
2023-09-21T13:50:09.936Z,35.63
2023-09-21T13:53:01.602Z,35.43
2023-09-21T13:56:16.002Z,34.90
2023-09-21T13:59:41.206Z,34.52
2023-09-21T14:02:50.359Z,34.85
2023-09-21T14:06:31.711Z,34.55
2023-09-21T14:09:54.453Z,34.28
2023-09-21T14:13:01.562Z,33.77
2023-09-21T14:16:24.873Z,33.83
2023-09-21T14:20:17.367Z,33.84
2023-09-21T14:23:59.551Z,34.02
2023-09-21T14:27:49.864Z,34.13
2023-09-21T14:31:34.052Z,34.34
2023-09-21T14:34:47.049Z,34.51
2023-09-21T14:37:18.256Z,34.18
2023-09-21T14:40:32.553Z,34.08
2023-09-21T14:43:15.442Z,34.20
2023-09-21T14:46:26.812Z,34.32
2023-09-21T14:49:05.170Z,34.28
2023-09-21T14:51:39.473Z,34.25
2023-09-21T14:54:13.302Z,34.07
2023-09-21T14:56:53.292Z,34.39
2023-09-21T15:00:29.485Z,34.82
2023-09-21T15:03:37.343Z,34.33
2023-09-21T15:06:14.174Z,33.79
2023-09-21T15:09:46.135Z,34.22
2023-09-21T15:13:01.898Z,34.44
2023-09-21T15:16:52.470Z,34.45
2023-09-21T15:20:16.133Z,34.07
2023-09-21T15:23:23.614Z,33.90
2023-09-21T15:26:09.894Z,33.53
2023-09-21T15:29:08.372Z,33.52
2023-09-21T15:32:01.267Z,33.66
2023-09-21T15:34:34.899Z,33.59
2023-09-21T15:37:16.973Z,33.42
2023-09-21T15:40:53.550Z,33.00
2023-09-21T15:44:35.674Z,32.74
2023-09-21T15:48:17.722Z,32.85
2023-09-21T15:51:45.774Z,32.65
2023-09-21T15:55:35.796Z,32.41
2023-09-21T15:59:27.631Z,31.97
2023-09-21T16:03:17.083Z,31.47
2023-09-21T16:07:06.578Z,31.30
2023-09-21T16:10:55.967Z,30.89
2023-09-21T16:14:03.067Z,30.64
2023-09-21T16:17:12.523Z,30.56
2023-09-21T16:20:29.137Z,30.47
2023-09-21T16:23:43.878Z,30.15
2023-09-21T16:27:32.071Z,29.88
2023-09-21T16:30:53.280Z,29.61
2023-09-21T16:34:39.018Z,29.51
2023-09-21T16:38:17.791Z,29.33
2023-09-21T16:41:58.054Z,29.15
2023-09-21T16:45:38.334Z,29.02
2023-09-21T16:49:16.816Z,28.94
2023-09-21T16:52:06.903Z,28.79
2023-09-21T16:55:15.034Z,28.75
2023-09-21T16:58:59.144Z,28.78
2023-09-21T17:01:51.242Z,28.66
2023-09-21T17:05:05.700Z,28.62
2023-09-21T17:08:42.104Z,28.64
2023-09-21T17:12:06.281Z,28.55
2023-09-21T17:15:29.853Z,28.51
2023-09-21T17:18:52.993Z,28.39
2023-09-21T17:22:05.992Z,28.34
2023-09-21T17:25:15.581Z,28.29
2023-09-21T17:28:36.530Z,28.24
2023-09-21T17:31:51.462Z,28.26
2023-09-21T17:34:59.341Z,28.19
2023-09-21T17:38:50.496Z,28.16
2023-09-21T17:41:59.309Z,28.08
2023-09-21T17:45:09.176Z,27.99
2023-09-21T17:48:42.354Z,28.04
2023-09-21T17:52:14.746Z,27.87
2023-09-21T17:56:12.613Z,27.78
2023-09-21T17:59:55.748Z,27.71
2023-09-21T18:03:42.622Z,27.61
2023-09-21T18:07:36.432Z,27.60
2023-09-21T18:11:29.388Z,27.48
2023-09-21T18:15:12.350Z,27.40
2023-09-21T18:18:49.277Z,27.43
2023-09-21T18:21:47.770Z,27.41
2023-09-21T18:25:22.228Z,27.33
2023-09-21T18:28:42.083Z,27.41
2023-09-21T18:32:13.773Z,27.34
2023-09-21T18:35:33.652Z,27.26
2023-09-21T18:38:38.973Z,27.41
2023-09-21T18:42:18.197Z,27.35
2023-09-21T18:45:37.749Z,27.14
2023-09-21T18:48:37.841Z,27.21
2023-09-21T18:51:48.396Z,27.11
2023-09-21T18:54:49.290Z,26.98
2023-09-21T18:58:25.880Z,26.90
2023-09-21T19:02:13.772Z,26.80
2023-09-21T19:05:48.721Z,26.69
2023-09-21T19:09:10.127Z,26.69
2023-09-21T19:12:40.038Z,26.59
2023-09-21T19:16:29.903Z,26.45
2023-09-21T19:20:11.154Z,26.29
2023-09-21T19:23:23.297Z,26.18
2023-09-21T19:26:42.987Z,26.06
2023-09-21T19:29:57.960Z,25.94
2023-09-21T19:33:22.785Z,25.94
2023-09-21T19:36:32.389Z,25.80
2023-09-21T19:40:22.132Z,25.65
2023-09-21T19:43:46.631Z,25.65
2023-09-21T19:47:03.095Z,25.57
2023-09-21T19:50:22.341Z,25.46
2023-09-21T19:54:00.911Z,25.51
2023-09-21T19:57:53.242Z,25.43
2023-09-21T20:01:43.021Z,25.33
2023-09-21T20:05:26.762Z,25.41
2023-09-21T20:09:17.017Z,25.40
2023-09-21T20:13:06.323Z,25.39
2023-09-21T20:16:54.859Z,25.44
2023-09-21T20:20:34.975Z,25.56
2023-09-21T20:24:09.021Z,25.58
2023-09-21T20:27:57.581Z,25.50
2023-09-21T20:31:19.111Z,25.43
2023-09-21T20:35:08.605Z,25.39
2023-09-21T20:38:32.405Z,25.34
2023-09-21T20:42:09.413Z,25.25
2023-09-21T20:45:25.164Z,25.19
2023-09-21T20:49:14.521Z,25.11
2023-09-21T20:52:36.045Z,25.11
2023-09-21T20:56:25.746Z,25.03
2023-09-21T20:59:46.613Z,24.94
2023-09-21T21:02:48.843Z,24.83
2023-09-21T21:06:01.286Z,24.83
2023-09-21T21:08:58.854Z,24.80
2023-09-21T21:12:12.440Z,24.67
2023-09-21T21:15:43.895Z,24.74
2023-09-21T21:19:18.875Z,24.67
2023-09-21T21:22:44.507Z,24.68
2023-09-21T21:26:12.383Z,24.64
2023-09-21T21:29:35.632Z,24.61
2023-09-21T21:32:36.817Z,24.52
2023-09-21T21:36:26.750Z,24.56
2023-09-21T21:40:19.683Z,24.48
2023-09-21T21:47:43.983Z,24.36
2023-09-21T21:51:36.343Z,24.16
2023-09-21T21:55:28.475Z,24.16
2023-09-21T21:59:22.848Z,24.08
2023-09-21T22:03:18.141Z,24.10
2023-09-21T22:07:11.182Z,24.12
2023-09-21T22:11:23.754Z,24.04
2023-09-21T22:15:14.164Z,23.98
2023-09-21T22:19:24.254Z,23.88
2023-09-21T22:23:15.214Z,23.74
2023-09-21T22:27:13.258Z,23.69
2023-09-21T22:31:08.209Z,23.66
2023-09-21T22:35:08.720Z,23.57
2023-09-21T22:39:19.274Z,23.50
2023-09-21T22:43:09.463Z,23.37
2023-09-21T22:47:21.823Z,23.45
2023-09-21T22:51:13.743Z,23.49
2023-09-21T22:55:04.568Z,23.44
2023-09-21T22:59:16.213Z,23.31
2023-09-21T23:03:07.459Z,23.27
2023-09-21T23:07:09.222Z,23.25
2023-09-21T23:11:00.754Z,23.29
2023-09-21T23:14:51.175Z,23.26
2023-09-21T23:19:03.141Z,23.17
2023-09-21T23:23:12.840Z,23.09
2023-09-21T23:27:05.052Z,23.09
2023-09-21T23:30:55.969Z,22.94
2023-09-21T23:35:02.872Z,22.90
2023-09-21T23:39:11.506Z,22.88
2023-09-21T23:43:01.185Z,22.80
2023-09-21T23:46:59.967Z,22.74
2023-09-21T23:50:44.165Z,22.76
2023-09-21T23:54:51.205Z,22.64
2023-09-21T23:58:50.853Z,22.72
